Time;durP1;ratioP1;P1;durP2;ratioP2;P2;SDS_P1;SDS_P2;PMS_P1;PMS_P2;Temp;Humidity;BMP_temperature;BMP_pressure;BME280_temperature;BME280_humidity;BME280_pressure;Samples;Min_cycle;Max_cycle;Signal;HPM_P1;HPM_P2
2022/04/30 00:05:51;;;;;;;;;;;17.40;54.00;;;;;;21083101;28;20464;-65
2022/04/30 00:15:52;;;;;;;;;;;18.40;53.10;;;;;;21079611;28;19924;-64
2022/04/30 00:25:55;;;;;;;;;;;17.70;54.70;;;;;;21079661;28;19924;-65
2022/04/30 00:35:56;;;;;;;;;;;17.90;55.40;;;;;;21079814;28;19924;-65
2022/04/30 00:45:58;;;;;;;;;;;;;;;;;;21079999;28;19932;-64
2022/04/30 00:56:00;;;;;;;;;;;17.90;56.10;;;;;;21078737;28;19924;-65
2022/04/30 01:06:02;;;;;;;;;;;;;;;;;;21094877;28;20292;-65
2022/04/30 01:16:04;;;;;;;;;;;;;;;;;;21078482;28;19932;-66
2022/04/30 01:26:07;;;;;;;;;;;;;;;;;;21082848;28;19928;-64
2022/04/30 01:46:37;;;;;;;;;;;;;;;;;;21091350;28;19924;-63
2022/04/30 01:56:41;;;;;;;;;;;;;;;;;;21090208;28;19924;-63
2022/04/30 02:06:50;;;;;;;;;;;;;;;;;;21090576;28;19935;-66
2022/04/30 02:16:58;;;;;;;;;;;;;;;;;;21089456;28;19924;-64
2022/04/30 02:27:19;;;;;;;;;;;;;;;;;;21090332;28;19985;-64
2022/04/30 02:37:35;;;;;;;;;;;;;;;;;;21086509;28;19974;-63
2022/04/30 02:47:44;;;;;;;;;;;;;;;;;;21086774;28;20372;-64
2022/04/30 03:08:33;;;;;;;;;;;;;;;;;;20991744;28;20285;-61
2022/04/30 03:28:59;;;;;;;;;;;;;;;;;;20990362;28;19924;-65
2022/04/30 03:39:05;;;;;;;;;;;;;;;;;;21069632;28;19931;-61
2022/04/30 03:49:07;;;;;;;;;;;;;;;;;;21081317;28;19926;-62
2022/04/30 03:59:09;;;;;;;;;;;;;;;;;;21081263;28;19928;-61
2022/04/30 04:09:15;;;;;;;;;;;;;;;;;;21063030;28;19924;-61
2022/04/30 04:19:22;;;;;;;;;;;;;;;;;;21079757;28;19924;-61
2022/04/30 04:29:24;;;;;;;;;;;;;;;;;;21079173;28;20061;-60
2022/04/30 04:39:27;;;;;;;;;;;;;;;;;;21078243;28;19931;-60
2022/04/30 04:49:28;;;;;;;;;;;;;;;;;;21078640;28;19971;-61
2022/04/30 04:59:30;;;;;;;;;;;;;;;;;;21082840;28;19924;-59
2022/04/30 05:09:32;;;;;;;;;;;;;;;;;;21094666;28;19947;-64
2022/04/30 05:19:34;;;;;;;;;;;;;;;;;;21094186;28;19924;-64
2022/04/30 05:29:36;;;;;;;;;;;;;;;;;;21093364;28;19924;-64
2022/04/30 05:39:38;;;;;;;;;;;;;;;;;;21093013;28;20056;-63
2022/04/30 05:49:41;;;;;;;;;;;;;;;;;;21091905;28;19924;-63
2022/04/30 05:59:43;;;;;;;;;;;;;;;;;;21090883;28;19924;-64
2022/04/30 06:09:46;;;;;;;;;;;;;;;;;;21103455;28;19924;-63
2022/04/30 06:19:48;;;;;;;;;;;15.40;66.50;;;;;;21090045;28;19969;-65
2022/04/30 06:29:50;;;;;;;;;;;14.60;68.70;;;;;;21088324;28;20380;-64
2022/04/30 06:39:52;;;;;;;;;;;14.70;69.10;;;;;;21087116;28;19930;-65
2022/04/30 06:49:54;;;;;;;;;;;14.90;68.40;;;;;;21086479;28;20022;-65
2022/04/30 06:59:56;;;;;;;;;;;15.20;67.80;;;;;;21086090;28;19994;-63
2022/04/30 07:09:58;;;;;;;;;;;15.50;67.10;;;;;;21084677;28;20439;-65
2022/04/30 07:20:02;;;;;;;;;;;;;;;;;;21100050;28;19928;-61
2022/04/30 07:30:04;;;;;;;;;;;;;;;;;;21083923;28;19969;-65
2022/04/30 07:40:08;;;;;;;;;;;;;;;;;;21083557;28;19924;-66
2022/04/30 07:50:10;;;;;;;;;;;;;;;;;;21082743;28;20225;-65
2022/04/30 08:00:12;;;;;;;;;;;18.40;58.60;;;;;;21096784;28;19928;-65
2022/04/30 08:10:13;;;;;;;;;;;17.70;60.00;;;;;;21081131;28;19971;-66
2022/04/30 08:20:15;;;;;;;;;;;18.70;57.40;;;;;;21080868;28;20348;-66
2022/04/30 08:30:17;;;;;;;;;;;18.60;57.70;;;;;;21105059;28;19923;-67
2022/04/30 08:40:19;;;;;;;;;;;19.30;56.10;;;;;;21161504;28;20001;-61
2022/04/30 08:50:20;;;;;;;;;;;19.30;56.30;;;;;;21143609;28;19930;-59
2022/04/30 09:00:22;;;;;;;;;;;20.20;54.40;;;;;;21160470;28;19931;-64
2022/04/30 09:10:24;;;;;;;;;;;19.80;54.50;;;;;;21161804;28;20217;-68
2022/04/30 09:20:26;;;;;;;;;;;20.10;53.70;;;;;;21162080;28;20364;-67
2022/04/30 09:30:29;;;;;;;;;;;20.40;53.30;;;;;;21161147;28;19930;-68
2022/04/30 09:40:31;;;;;;;;;;;20.50;52.90;;;;;;21160649;28;19924;-67
2022/04/30 10:00:57;;;;;;;;;;;20.80;52.70;;;;;;21104314;28;19973;-60
2022/04/30 10:11:07;;;;;;;;;;;21.00;51.90;;;;;;21116491;28;20008;-56
2022/04/30 10:21:27;;;;;;;;;;;21.50;50.80;;;;;;21120575;28;19928;-59
2022/04/30 10:31:29;;;;;;;;;;;21.30;50.90;;;;;;21158916;28;19947;-60
2022/04/30 10:41:49;;;;;;;;;;;21.70;49.50;;;;;;21143031;28;19931;-57
2022/04/30 10:51:54;;;;;;;;;;;21.90;49.80;;;;;;21150816;28;19924;-63
2022/04/30 11:01:55;;;;;;;;;;;21.80;49.50;;;;;;21121121;28;19931;-60
2022/04/30 11:11:57;;;;;;;;;;;22.20;48.20;;;;;;21168230;28;19924;-62
2022/04/30 11:21:59;;;;;;;;;;;22.60;47.70;;;;;;21166992;28;19932;-61
2022/04/30 11:32:01;;;;;;;;;;;22.90;47.40;;;;;;21169227;28;20296;-67
2022/04/30 11:42:03;;;;;;;;;;;23.10;47.10;;;;;;21152510;28;19969;-61
2022/04/30 11:52:05;;;;;;;;;;;;;;;;;;21153263;28;19946;-60
2022/04/30 12:02:06;;;;;;;;;;;;;;;;;;21167277;28;19999;-60
2022/04/30 12:12:21;;;;;;;;;;;24.30;44.40;;;;;;21162812;28;19974;-58
2022/04/30 12:32:51;;;;;;;;;;;24.20;45.50;;;;;;21143593;28;19924;-58
2022/04/30 12:42:53;;;;;;;;;;;24.30;44.90;;;;;;21120227;28;19923;-60
2022/04/30 12:52:55;;;;;;;;;;;24.60;44.20;;;;;;21163729;28;20325;-58
2022/04/30 13:02:56;;;;;;;;;;;25.00;41.30;;;;;;21162414;28;19957;-61
2022/04/30 13:23:18;;;;;;;;;;;24.60;41.90;;;;;;21169653;28;19965;-60
2022/04/30 13:33:20;;;;;;;;;;;23.90;44.60;;;;;;21177779;28;20426;-61
2022/04/30 13:43:23;;;;;;;;;;;22.20;47.90;;;;;;21176150;28;19949;-59
2022/04/30 13:53:26;;;;;;;;;;;20.00;59.50;;;;;;21176594;28;20364;-62
2022/04/30 14:03:28;;;;;;;;;;;19.40;59.80;;;;;;21175891;28;19931;-61
2022/04/30 14:23:50;;;;;;;;;;;20.20;60.00;;;;;;21174612;28;19951;-59
2022/04/30 14:33:52;;;;;;;;;;;20.70;59.20;;;;;;21171836;28;20394;-58
2022/04/30 14:43:53;;;;;;;;;;;21.10;57.60;;;;;;21154191;28;20023;-59
2022/04/30 14:53:55;;;;;;;;;;;21.50;56.40;;;;;;21170623;28;19928;-61
2022/04/30 15:03:57;;;;;;;;;;;21.80;56.40;;;;;;21170199;28;20375;-59
2022/04/30 15:13:58;;;;;;;;;;;22.20;55.80;;;;;;21168760;28;20410;-59
2022/04/30 15:24:00;;;;;;;;;;;22.30;55.40;;;;;;21150098;28;19934;-59
2022/04/30 15:34:02;;;;;;;;;;;22.50;54.60;;;;;;21168562;28;20283;-59
2022/04/30 15:44:04;;;;;;;;;;;22.70;53.40;;;;;;21166820;28;19930;-59
2022/04/30 15:54:06;;;;;;;;;;;22.70;53.30;;;;;;21166667;28;20398;-58
2022/04/30 16:04:07;;;;;;;;;;;22.70;54.00;;;;;;21166513;28;19930;-60
2022/04/30 16:14:08;;;;;;;;;;;22.80;53.90;;;;;;21166477;28;19968;-59
2022/04/30 16:24:10;;;;;;;;;;;22.90;53.30;;;;;;21164185;28;19928;-59
2022/04/30 16:34:15;;;;;;;;;;;22.80;53.10;;;;;;21162489;28;20220;-59
2022/04/30 16:44:18;;;;;;;;;;;22.70;54.30;;;;;;21162756;28;19924;-60
2022/04/30 16:57:04;;;;;;;;;;;22.50;54.20;;;;;;21164929;28;19924;-59
2022/04/30 17:04:43;;;;;;;;;;;22.20;54.80;;;;;;21180494;28;19950;-60
2022/04/30 17:14:44;;;;;;;;;;;22.20;55.70;;;;;;21178261;28;19999;-60
2022/04/30 17:24:47;;;;;;;;;;;22.10;55.80;;;;;;21178869;28;20355;-60
2022/04/30 17:45:10;;;;;;;;;;;21.90;56.80;;;;;;21175444;28;19923;-62
2022/04/30 17:55:13;;;;;;;;;;;21.70;56.90;;;;;;21176266;28;20011;-59
2022/04/30 18:05:15;;;;;;;;;;;21.70;57.30;;;;;;21175147;28;20012;-61
2022/04/30 18:15:17;;;;;;;;;;;21.60;57.50;;;;;;21173851;28;19928;-58
2022/04/30 18:25:19;;;;;;;;;;;21.60;57.80;;;;;;21174059;28;20448;-59
2022/04/30 18:35:20;;;;;;;;;;;21.30;57.90;;;;;;21172649;28;20031;-58
2022/04/30 18:45:22;;;;;;;;;;;21.20;59.50;;;;;;21172907;28;19969;-58
2022/04/30 19:05:43;;;;;;;;;;;20.90;60.70;;;;;;21170667;28;20022;-58
2022/04/30 19:15:45;;;;;;;;;;;20.70;61.70;;;;;;21169213;28;19923;-58
2022/04/30 19:25:47;;;;;;;;;;;20.40;62.70;;;;;;21168979;28;19959;-59
2022/04/30 19:35:49;;;;;;;;;;;20.20;63.30;;;;;;21167569;28;19924;-58
2022/04/30 19:45:50;;;;;;;;;;;20.10;64.10;;;;;;21148731;28;19931;-59
2022/04/30 19:55:52;;;;;;;;;;;20.00;64.40;;;;;;21167012;28;19963;-59
2022/04/30 20:05:53;;;;;;;;;;;19.90;65.00;;;;;;21165466;28;20045;-61
2022/04/30 20:26:14;;;;;;;;;;;19.70;65.10;;;;;;21165048;28;19968;-61
2022/04/30 20:46:36;;;;;;;;;;;19.70;65.10;;;;;;21163968;28;20368;-60
2022/04/30 20:56:41;;;;;;;;;;;19.60;65.20;;;;;;21162502;28;19924;-62
2022/04/30 21:06:42;;;;;;;;;;;19.50;65.70;;;;;;21163080;28;20372;-59
2022/04/30 21:16:46;;;;;;;;;;;19.60;66.00;;;;;;21161343;28;19923;-61
2022/04/30 21:26:47;;;;;;;;;;;19.60;66.00;;;;;;21162522;28;19930;-60
2022/04/30 21:36:49;;;;;;;;;;;19.60;66.60;;;;;;21161839;28;19924;-58
2022/04/30 21:46:53;;;;;;;;;;;19.50;67.00;;;;;;21171557;28;19928;-63
2022/04/30 22:07:16;;;;;;;;;;;19.50;67.00;;;;;;21175875;28;20408;-62
2022/04/30 22:17:18;;;;;;;;;;;19.40;66.70;;;;;;21176585;28;19971;-58
2022/04/30 22:27:20;;;;;;;;;;;19.40;67.30;;;;;;21174732;28;19931;-58
2022/04/30 22:37:21;;;;;;;;;;;19.30;66.90;;;;;;21172304;28;19923;-59
2022/04/30 22:47:23;;;;;;;;;;;19.10;67.30;;;;;;21171563;28;19924;-61
2022/04/30 22:57:24;;;;;;;;;;;19.10;67.40;;;;;;21170164;28;20384;-62
2022/04/30 23:07:26;;;;;;;;;;;19.00;67.30;;;;;;21170303;28;19924;-60
2022/04/30 23:17:28;;;;;;;;;;;19.00;67.60;;;;;;21168976;28;19970;-62
2022/04/30 23:27:30;;;;;;;;;;;19.00;68.00;;;;;;21168665;28;19923;-60
2022/04/30 23:37:32;;;;;;;;;;;18.90;68.20;;;;;;21167770;28;19924;-58
2022/04/30 23:47:35;;;;;;;;;;;18.80;68.70;;;;;;21167632;28;20011;-58
2022/04/30 23:57:37;;;;;;;;;;;18.70;69.10;;;;;;21148051;28;19923;-58
